Time;durP1;ratioP1;P1;durP2;ratioP2;P2;SDS_P1;SDS_P2;PMS_P1;PMS_P2;Temp;Humidity;BMP_temperature;BMP_pressure;BME280_temperature;BME280_humidity;BME280_pressure;Samples;Min_cycle;Max_cycle;Signal;HPM_P1;HPM_P2
2024/02/22 00:00:07;;;;;;;;;;;;;;;0.41;100.00;97681.30;110367;1241;60495;-61
2024/02/22 00:03:03;;;;;;;;;;;;;;;0.33;100.00;97680.30;110133;1241;73048;-61
2024/02/22 00:05:32;;;;;;;;;;;;;;;0.30;100.00;97683.84;110275;1242;68479;-61
2024/02/22 00:08:01;;;;;;;;;;;;;;;0.27;100.00;97680.65;110397;1241;67645;-61
2024/02/22 00:10:30;;;;;;;;;;;;;;;0.23;100.00;97678.17;110366;1241;60443;-61
2024/02/22 00:13:01;;;;;;;;;;;;;;;0.19;100.00;97683.77;110358;1241;60870;-61
2024/02/22 00:15:30;;;;;;;;;;;;;;;0.16;100.00;97687.45;110363;1241;72020;-61
2024/02/22 00:17:59;;;;;;;;;;;;;;;0.11;100.00;97686.92;110365;1240;69767;-61
2024/02/22 00:20:29;;;;;;;;;;;;;;;0.06;100.00;97685.16;110347;1241;69286;-61
2024/02/22 00:22:58;;;;;;;;;;;;;;;0.01;100.00;97688.89;110340;1241;60878;-61
2024/02/22 00:25:27;;;;;;;;;;;;;;;-0.04;100.00;97681.31;110385;1240;60431;-61
2024/02/22 00:27:55;;;;;;;;;;;;;;;-0.09;100.00;97678.34;110476;1241;72796;-61
2024/02/22 00:30:25;;;;;;;;;;;;;;;-0.13;100.00;97679.14;110500;1241;69901;-61
2024/02/22 00:32:54;;;;;;;;;;;;;;;-0.22;100.00;97678.34;110488;1241;70068;-61
2024/02/22 00:35:23;;;;;;;;;;;;;;;-0.31;100.00;97674.79;110458;1240;60450;-61
2024/02/22 00:37:52;;;;;;;;;;;;;;;-0.36;100.00;97677.84;110513;1241;60527;-61
2024/02/22 00:40:22;;;;;;;;;;;;;;;-0.39;100.00;97676.38;110487;1238;71984;-61
2024/02/22 00:42:50;;;;;;;;;;;;;;;-0.40;100.00;97674.36;110532;1238;69303;-61
2024/02/22 00:45:20;;;;;;;;;;;;;;;-0.41;100.00;97663.42;110408;1241;69255;-61
2024/02/22 00:47:49;;;;;;;;;;;;;;;-0.41;100.00;97657.25;110522;1240;60509;-61
2024/02/22 00:50:17;;;;;;;;;;;;;;;-0.40;100.00;97649.54;110343;1242;60466;-61
2024/02/22 00:52:47;;;;;;;;;;;;;;;-0.40;100.00;97648.83;110515;1241;71649;-61
2024/02/22 00:55:16;;;;;;;;;;;;;;;-0.37;100.00;97649.79;110421;1239;69127;-61
2024/02/22 00:57:45;;;;;;;;;;;;;;;-0.35;100.00;97649.91;110368;1240;69337;-61
2024/02/22 01:00:14;;;;;;;;;;;;;;;-0.35;100.00;97642.71;110337;1241;60521;-61
2024/02/22 01:02:43;;;;;;;;;;;;;;;-0.33;100.00;97642.32;110355;1241;60475;-61
2024/02/22 01:05:13;;;;;;;;;;;;;;;-0.31;100.00;97641.76;110374;1241;72701;-61
2024/02/22 01:07:42;;;;;;;;;;;;;;;-0.28;100.00;97642.02;110348;1241;69177;-61
2024/02/22 01:10:11;;;;;;;;;;;;;;;-0.25;100.00;97638.33;110343;1241;69079;-61
2024/02/22 01:12:39;;;;;;;;;;;;;;;-0.23;100.00;97638.29;110391;1240;60543;-61
2024/02/22 01:15:09;;;;;;;;;;;;;;;-0.18;100.00;97644.31;110308;1241;60518;-60
2024/02/22 01:17:38;;;;;;;;;;;;;;;-0.11;100.00;97646.37;110458;1246;72796;-60
2024/02/22 01:20:10;;;;;;;;;;;;;;;-0.06;100.00;97642.30;110396;1240;68252;-60
2024/02/22 01:22:40;;;;;;;;;;;;;;;0.01;100.00;97632.85;110395;1241;67593;-60
2024/02/22 01:25:10;;;;;;;;;;;;;;;0.07;100.00;97628.58;110303;1238;60594;-60
2024/02/22 01:27:39;;;;;;;;;;;;;;;0.09;100.00;97622.52;110418;1238;60544;-60
2024/02/22 01:30:08;;;;;;;;;;;;;;;0.07;100.00;97615.06;110404;1238;72741;-60
2024/02/22 01:32:38;;;;;;;;;;;;;;;-0.00;100.00;97610.44;110358;1241;69913;-60
2024/02/22 01:35:10;;;;;;;;;;;;;;;-0.06;100.00;97608.52;110527;1241;69245;-60
2024/02/22 01:37:39;;;;;;;;;;;;;;;-0.05;100.00;97604.56;110439;1242;60565;-60
2024/02/22 01:40:11;;;;;;;;;;;;;;;-0.06;100.00;97599.95;110403;1241;60495;-60
2024/02/22 01:42:43;;;;;;;;;;;;;;;-0.05;100.00;97596.86;110364;1241;72007;-60
2024/02/22 01:45:12;;;;;;;;;;;;;;;-0.05;100.00;97593.94;110382;1240;69802;-60
2024/02/22 01:47:41;;;;;;;;;;;;;;;-0.00;100.00;97590.23;110178;1243;68697;-61
2024/02/22 01:50:10;;;;;;;;;;;;;;;0.06;100.00;97587.30;110345;1241;60507;-60
2024/02/22 01:52:39;;;;;;;;;;;;;;;0.11;100.00;97584.10;110347;1245;60569;-60
2024/02/22 01:55:10;;;;;;;;;;;;;;;0.15;100.00;97581.38;110406;1241;72273;-61
2024/02/22 01:57:39;;;;;;;;;;;;;;;0.19;100.00;97575.79;110395;1241;69858;-61
2024/02/22 02:00:17;;;;;;;;;;;;;;;0.23;100.00;97569.50;110444;1244;69247;-62
2024/02/22 02:02:47;;;;;;;;;;;;;;;0.25;100.00;97565.50;110417;1241;60522;-62
2024/02/22 02:05:17;;;;;;;;;;;;;;;0.27;100.00;97565.62;110640;1241;60427;-62
2024/02/22 02:07:46;;;;;;;;;;;;;;;0.27;100.00;97566.64;110558;1242;72283;-62
2024/02/22 02:10:15;;;;;;;;;;;;;;;0.27;100.00;97562.88;110388;1241;69823;-63
2024/02/22 02:12:44;;;;;;;;;;;;;;;0.26;100.00;97562.21;110397;1240;69075;-62
2024/02/22 02:15:13;;;;;;;;;;;;;;;0.25;100.00;97560.02;110384;1241;60539;-62
2024/02/22 02:17:43;;;;;;;;;;;;;;;0.25;100.00;97563.30;110445;1238;60478;-60
2024/02/22 02:20:14;;;;;;;;;;;;;;;0.25;100.00;97560.19;110466;1241;72988;-60
2024/02/22 02:23:01;;;;;;;;;;;;;;;0.26;100.00;97554.68;110356;1242;69062;-60
2024/02/22 02:25:30;;;;;;;;;;;;;;;0.27;100.00;97552.24;110428;1241;68846;-61
2024/02/22 02:27:59;;;;;;;;;;;;;;;0.29;100.00;97549.27;110391;1238;60538;-61
2024/02/22 02:30:29;;;;;;;;;;;;;;;0.32;100.00;97545.41;110381;1240;60563;-61
2024/02/22 02:32:58;;;;;;;;;;;;;;;0.33;100.00;97546.59;110479;1241;72574;-61
2024/02/22 02:35:26;;;;;;;;;;;;;;;0.35;100.00;97543.09;110431;1241;69796;-61
2024/02/22 02:37:57;;;;;;;;;;;;;;;0.36;100.00;97536.20;110348;1241;69689;-60
2024/02/22 02:40:26;;;;;;;;;;;;;;;0.37;100.00;97536.84;110435;1241;60533;-61
2024/02/22 02:42:55;;;;;;;;;;;;;;;0.39;100.00;97537.14;110363;1243;60499;-61
2024/02/22 02:45:24;;;;;;;;;;;;;;;0.38;100.00;97537.16;110415;1241;72036;-61
2024/02/22 02:47:53;;;;;;;;;;;;;;;0.38;100.00;97530.48;110427;1242;69178;-61
2024/02/22 02:50:21;;;;;;;;;;;;;;;0.36;100.00;97527.45;110404;1241;69170;-61
2024/02/22 02:52:52;;;;;;;;;;;;;;;0.34;100.00;97524.09;110394;1241;60508;-63
2024/02/22 02:55:21;;;;;;;;;;;;;;;0.33;100.00;97522.57;110389;1241;60495;-61
2024/02/22 02:57:50;;;;;;;;;;;;;;;0.29;100.00;97519.95;110399;1242;72894;-61
2024/02/22 03:00:18;;;;;;;;;;;;;;;0.28;100.00;97514.52;110391;1241;69165;-62
2024/02/22 03:02:47;;;;;;;;;;;;;;;0.27;100.00;97521.21;110391;1240;68351;-62
2024/02/22 03:05:16;;;;;;;;;;;;;;;0.27;100.00;97521.73;110428;1248;60467;-62
2024/02/22 03:07:45;;;;;;;;;;;;;;;0.27;100.00;97524.81;110411;1241;60444;-62
2024/02/22 03:10:14;;;;;;;;;;;;;;;0.29;100.00;97526.29;110420;1241;72191;-61
2024/02/22 03:12:43;;;;;;;;;;;;;;;0.31;100.00;97525.55;110483;1242;69236;-62
2024/02/22 03:15:13;;;;;;;;;;;;;;;0.31;100.00;97527.25;110533;1240;69902;-61
2024/02/22 03:17:42;;;;;;;;;;;;;;;0.28;100.00;97524.61;110446;1241;60511;-62
2024/02/22 03:20:11;;;;;;;;;;;;;;;0.24;100.00;97523.20;110407;1240;60476;-62
2024/02/22 03:22:40;;;;;;;;;;;;;;;0.19;100.00;97520.60;110420;1242;70999;-62
2024/02/22 03:25:09;;;;;;;;;;;;;;;0.15;100.00;97516.08;110480;1242;68628;-61
2024/02/22 03:27:38;;;;;;;;;;;;;;;0.12;100.00;97521.33;110485;1241;69713;-61
2024/02/22 03:30:08;;;;;;;;;;;;;;;0.06;100.00;97521.32;110510;1241;60570;-62
2024/02/22 03:32:37;;;;;;;;;;;;;;;0.04;100.00;97521.05;110556;1239;60486;-62
2024/02/22 03:35:06;;;;;;;;;;;;;;;0.02;100.00;97524.20;110465;1241;72786;-62
2024/02/22 03:37:35;;;;;;;;;;;;;;;0.01;100.00;97525.74;110531;1240;69119;-62
2024/02/22 03:40:05;;;;;;;;;;;;;;;0.03;100.00;97522.95;110495;1241;69826;-62
2024/02/22 03:42:35;;;;;;;;;;;;;;;0.07;100.00;97522.50;110511;1240;60804;-62
2024/02/22 03:45:05;;;;;;;;;;;;;;;0.12;100.00;97523.91;110510;1241;60890;-62
2024/02/22 03:47:34;;;;;;;;;;;;;;;0.15;100.00;97523.80;110516;1241;72142;-62
2024/02/22 03:50:04;;;;;;;;;;;;;;;0.20;100.00;97525.36;110435;1240;68716;-63
2024/02/22 03:52:32;;;;;;;;;;;;;;;0.25;100.00;97524.36;110401;1241;69715;-62
2024/02/22 03:55:02;;;;;;;;;;;;;;;0.30;100.00;97522.16;110358;1240;60548;-62
2024/02/22 03:57:31;;;;;;;;;;;;;;;0.34;100.00;97522.71;110386;1240;60531;-62
2024/02/22 04:00:00;;;;;;;;;;;;;;;0.39;100.00;97522.06;110371;1241;71589;-62
2024/02/22 04:02:28;;;;;;;;;;;;;;;0.44;100.00;97522.73;110365;1241;69840;-62
2024/02/22 04:04:57;;;;;;;;;;;;;;;0.51;100.00;97530.10;110333;1242;69175;-62
2024/02/22 04:07:26;;;;;;;;;;;;;;;0.56;100.00;97525.67;110362;1240;60579;-62
2024/02/22 04:09:55;;;;;;;;;;;;;;;0.61;100.00;97522.92;110400;1240;60540;-62
2024/02/22 04:12:24;;;;;;;;;;;;;;;0.64;100.00;97519.58;110332;1241;72734;-62
2024/02/22 04:14:52;;;;;;;;;;;;;;;0.68;100.00;97520.63;110305;1242;68610;-62
2024/02/22 04:17:21;;;;;;;;;;;;;;;0.69;100.00;97522.85;110383;1241;68664;-62
2024/02/22 04:19:50;;;;;;;;;;;;;;;0.68;100.00;97520.66;110484;1242;60518;-62
2024/02/22 04:22:19;;;;;;;;;;;;;;;0.65;100.00;97522.27;110457;1241;60512;-61
2024/02/22 04:24:48;;;;;;;;;;;;;;;0.62;100.00;97519.27;110353;1242;71153;-62
2024/02/22 04:27:16;;;;;;;;;;;;;;;0.60;100.00;97519.01;110395;1241;70030;-62
2024/02/22 04:29:45;;;;;;;;;;;;;;;0.58;100.00;97515.83;110440;1241;69621;-62
2024/02/22 04:32:14;;;;;;;;;;;;;;;0.55;100.00;97514.19;110361;1241;60526;-62
2024/02/22 04:34:43;;;;;;;;;;;;;;;0.52;100.00;97512.23;110351;1241;60521;-62
2024/02/22 04:37:15;;;;;;;;;;;;;;;0.49;100.00;97509.73;110393;1241;72923;-62
2024/02/22 04:39:44;;;;;;;;;;;;;;;0.45;100.00;97509.71;110510;1240;68188;-62
2024/02/22 04:42:13;;;;;;;;;;;;;;;0.38;100.00;97509.39;110431;1241;69328;-62
2024/02/22 04:44:44;;;;;;;;;;;;;;;0.32;100.00;97503.92;110438;1239;60531;-62
2024/02/22 04:47:13;;;;;;;;;;;;;;;0.25;100.00;97502.92;110474;1242;60404;-62
2024/02/22 04:49:42;;;;;;;;;;;;;;;0.19;100.00;97502.27;110501;1240;71681;-62
2024/02/22 04:52:11;;;;;;;;;;;;;;;0.12;100.00;97500.92;110409;1241;69849;-62
2024/02/22 04:54:39;;;;;;;;;;;;;;;0.04;100.00;97501.69;110396;1241;70101;-62
2024/02/22 04:57:12;;;;;;;;;;;;;;;-0.06;100.00;97496.15;110382;1239;60515;-62
2024/02/22 04:59:41;;;;;;;;;;;;;;;-0.13;100.00;97491.72;110412;1241;60465;-62
2024/02/22 05:02:10;;;;;;;;;;;;;;;-0.20;100.00;97485.25;110290;1241;73084;-62
2024/02/22 05:04:39;;;;;;;;;;;;;;;-0.25;100.00;97481.95;110341;1240;68338;-60
2024/02/22 05:07:08;;;;;;;;;;;;;;;-0.28;100.00;97481.52;110347;1241;69088;-63
2024/02/22 05:09:37;;;;;;;;;;;;;;;-0.31;100.00;97479.89;110303;1240;60582;-60
2024/02/22 05:12:07;;;;;;;;;;;;;;;-0.34;100.00;97479.13;110391;1241;60505;-61
2024/02/22 05:14:36;;;;;;;;;;;;;;;-0.37;100.00;97478.36;110387;1241;71190;-61
2024/02/22 05:17:05;;;;;;;;;;;;;;;-0.38;100.00;97478.23;110467;1241;68255;-61
2024/02/22 05:19:34;;;;;;;;;;;;;;;-0.39;100.00;97479.95;110347;1241;69942;-61
2024/02/22 05:22:03;;;;;;;;;;;;;;;-0.39;100.00;97480.45;110286;1241;60502;-61
2024/02/22 05:24:32;;;;;;;;;;;;;;;-0.37;100.00;97482.13;110401;1241;60558;-61
2024/02/22 05:27:03;;;;;;;;;;;;;;;-0.37;100.00;97480.06;110411;1248;72100;-61
2024/02/22 05:29:32;;;;;;;;;;;;;;;-0.35;100.00;97483.79;110488;1241;69738;-62
2024/02/22 05:32:00;;;;;;;;;;;;;;;-0.33;100.00;97484.92;110496;1242;68867;-60
2024/02/22 05:34:29;;;;;;;;;;;;;;;-0.29;100.00;97480.02;110287;1242;60470;-61
2024/02/22 05:36:58;;;;;;;;;;;;;;;-0.22;100.00;97483.59;110519;1241;60475;-61
2024/02/22 05:39:27;;;;;;;;;;;;;;;-0.14;100.00;97481.48;110467;1241;72185;-61
2024/02/22 05:41:55;;;;;;;;;;;;;;;-0.07;100.00;97481.07;110470;1241;69876;-60
2024/02/22 05:44:24;;;;;;;;;;;;;;;-0.00;100.00;97483.46;110524;1240;69810;-61
2024/02/22 05:46:53;;;;;;;;;;;;;;;0.06;100.00;97484.33;110367;1240;60479;-61
2024/02/22 05:49:22;;;;;;;;;;;;;;;0.10;100.00;97483.52;110324;1241;60482;-61
2024/02/22 05:51:51;;;;;;;;;;;;;;;0.13;100.00;97486.48;110345;1242;71737;-61
2024/02/22 05:54:22;;;;;;;;;;;;;;;0.19;100.00;97487.01;110431;1241;69196;-61
2024/02/22 05:56:51;;;;;;;;;;;;;;;0.27;100.00;97488.83;110383;1241;69897;-61
2024/02/22 05:59:19;;;;;;;;;;;;;;;0.33;100.00;97494.48;110387;1241;60545;-61
2024/02/22 06:01:49;;;;;;;;;;;;;;;0.40;100.00;97493.23;110348;1241;60504;-61
2024/02/22 06:04:18;;;;;;;;;;;;;;;0.45;100.00;97492.54;110354;1241;72179;-61
2024/02/22 06:06:47;;;;;;;;;;;;;;;0.51;100.00;97493.41;110413;1238;69068;-61
2024/02/22 06:09:15;;;;;;;;;;;;;;;0.57;100.00;97489.45;110461;1238;68823;-61
2024/02/22 06:11:44;;;;;;;;;;;;;;;0.62;100.00;97488.42;110480;1242;60417;-61
2024/02/22 06:14:13;;;;;;;;;;;;;;;0.66;100.00;97488.66;110479;1241;60464;-61
2024/02/22 06:16:42;;;;;;;;;;;;;;;0.69;100.00;97492.31;109983;1241;510077;-61
2024/02/22 06:19:11;;;;;;;;;;;;;;;0.72;100.00;97494.27;110169;1241;69702;-61
2024/02/22 06:21:40;;;;;;;;;;;;;;;0.76;100.00;97497.77;110362;1241;70435;-61
2024/02/22 06:24:09;;;;;;;;;;;;;;;0.80;100.00;97498.65;110346;1240;60467;-61
2024/02/22 06:26:39;;;;;;;;;;;;;;;0.88;100.00;97505.45;110429;1242;60473;-61
2024/02/22 06:29:07;;;;;;;;;;;;;;;0.95;100.00;97509.98;110412;1241;72645;-61
2024/02/22 06:31:36;;;;;;;;;;;;;;;1.06;100.00;97505.34;110460;1241;69141;-62
2024/02/22 06:34:05;;;;;;;;;;;;;;;1.21;100.00;97509.98;110581;1241;69328;-61
2024/02/22 06:36:34;;;;;;;;;;;;;;;1.45;100.00;97505.05;110528;1242;60495;-61
2024/02/22 06:39:03;;;;;;;;;;;;;;;1.83;100.00;97509.70;110446;1238;60530;-61
2024/02/22 06:41:32;;;;;;;;;;;;;;;2.31;100.00;97506.02;110496;1238;72697;-61
2024/02/22 06:44:01;;;;;;;;;;;;;;;2.84;100.00;97507.92;110382;1241;69036;-61
2024/02/22 06:46:30;;;;;;;;;;;;;;;3.30;100.00;97503.42;110394;1241;69293;-61
2024/02/22 06:48:59;;;;;;;;;;;;;;;3.65;100.00;97504.16;110375;1240;60876;-61
2024/02/22 06:51:28;;;;;;;;;;;;;;;4.07;100.00;97505.39;110369;1238;60497;-62
2024/02/22 06:53:58;;;;;;;;;;;;;;;4.49;100.00;97507.09;110363;1238;71303;-62
2024/02/22 06:56:27;;;;;;;;;;;;;;;5.05;100.00;97505.11;110445;1240;69534;-62
2024/02/22 06:58:55;;;;;;;;;;;;;;;5.52;100.00;97506.37;110123;1243;69607;-62
2024/02/22 07:01:25;;;;;;;;;;;;;;;6.00;100.00;97511.00;110373;1241;60550;-62
2024/02/22 07:03:53;;;;;;;;;;;;;;;6.40;100.00;97509.72;110407;1240;60437;-62
2024/02/22 07:06:22;;;;;;;;;;;;;;;6.83;100.00;97507.89;110385;1240;72448;-62
2024/02/22 07:08:53;;;;;;;;;;;;;;;7.24;100.00;97502.92;110384;1241;69960;-62
2024/02/22 07:11:22;;;;;;;;;;;;;;;7.60;100.00;97505.34;110407;1240;69835;-62
2024/02/22 07:13:52;;;;;;;;;;;;;;;7.86;100.00;97501.84;110344;1241;60551;-63
2024/02/22 07:16:21;;;;;;;;;;;;;;;8.24;100.00;97502.86;110425;1242;60524;-61
2024/02/22 07:18:49;;;;;;;;;;;;;;;8.54;100.00;97499.27;110337;1240;72374;-61
2024/02/22 07:21:19;;;;;;;;;;;;;;;8.82;100.00;97493.32;110600;1238;68514;-61
2024/02/22 07:23:47;;;;;;;;;;;;;;;9.16;100.00;97491.45;110315;1241;68901;-61
2024/02/22 07:26:16;;;;;;;;;;;;;;;9.45;100.00;97483.96;110408;1241;60470;-60
2024/02/22 07:28:46;;;;;;;;;;;;;;;9.86;100.00;97482.55;110392;1240;60491;-61
2024/02/22 07:31:15;;;;;;;;;;;;;;;10.24;100.00;97481.34;110395;1241;73088;-62
2024/02/22 07:33:43;;;;;;;;;;;;;;;10.47;100.00;97478.30;110413;1242;69850;-63
2024/02/22 07:36:12;;;;;;;;;;;;;;;10.77;100.00;97476.70;110446;1239;69914;-61
2024/02/22 07:38:42;;;;;;;;;;;;;;;10.99;100.00;97478.60;110421;1242;60553;-63
2024/02/22 07:41:15;;;;;;;;;;;;;;;11.16;93.95;97478.88;110431;1238;60534;-61
2024/02/22 07:43:45;;;;;;;;;;;;;;;11.28;90.50;97477.45;110410;1240;72781;-61
2024/02/22 07:46:14;;;;;;;;;;;;;;;11.47;92.51;97478.33;110399;1238;69751;-61
2024/02/22 07:48:43;;;;;;;;;;;;;;;11.34;90.46;97477.00;110387;1241;69855;-63
2024/02/22 07:51:12;;;;;;;;;;;;;;;10.71;82.36;97480.61;110389;1241;60565;-61
2024/02/22 07:53:42;;;;;;;;;;;;;;;10.89;85.80;97479.78;110421;1241;60472;-61
2024/02/22 07:56:11;;;;;;;;;;;;;;;10.95;82.79;97481.09;110454;1238;72649;-61
2024/02/22 07:58:49;;;;;;;;;;;;;;;11.03;85.79;97485.05;110344;1241;69372;-63
2024/02/22 08:01:18;;;;;;;;;;;;;;;11.54;86.51;97485.11;110494;1239;69233;-62
2024/02/22 08:03:53;;;;;;;;;;;;;;;12.05;83.69;97485.05;110374;1238;60608;-63
2024/02/22 08:06:21;;;;;;;;;;;;;;;12.36;78.30;97483.00;110366;1238;60461;-61
2024/02/22 08:08:51;;;;;;;;;;;;;;;12.39;73.45;97473.89;110374;1238;72970;-62
2024/02/22 08:11:20;;;;;;;;;;;;;;;12.36;76.04;97475.19;110475;1241;69684;-62
2024/02/22 08:13:49;;;;;;;;;;;;;;;12.45;73.91;97466.21;110385;1241;68469;-61
2024/02/22 08:16:18;;;;;;;;;;;;;;;12.23;71.74;97465.33;110392;1242;60496;-62
2024/02/22 08:18:48;;;;;;;;;;;;;;;12.22;73.48;97458.74;110396;1241;60425;-61
2024/02/22 08:21:18;;;;;;;;;;;;;;;12.31;71.55;97455.29;110396;1241;72503;-62
2024/02/22 08:23:51;;;;;;;;;;;;;;;12.35;69.35;97454.45;110450;1241;70251;-61
2024/02/22 08:26:19;;;;;;;;;;;;;;;12.76;70.03;97449.05;110446;1241;68331;-62
2024/02/22 08:28:48;;;;;;;;;;;;;;;13.12;65.69;97444.71;110416;1238;60573;-63
2024/02/22 08:31:17;;;;;;;;;;;;;;;13.46;65.51;97445.23;110388;1240;60449;-62
2024/02/22 08:33:48;;;;;;;;;;;;;;;13.31;61.55;97435.80;110374;1241;72723;-62
2024/02/22 08:36:17;;;;;;;;;;;;;;;13.28;62.46;97433.94;110371;1240;69717;-62
2024/02/22 08:38:46;;;;;;;;;;;;;;;13.71;59.87;97437.88;110515;1241;68144;-62
2024/02/22 08:41:15;;;;;;;;;;;;;;;13.87;59.49;97439.61;110465;1238;60538;-61
2024/02/22 08:43:44;;;;;;;;;;;;;;;14.21;57.18;97442.69;110396;1243;60489;-61
2024/02/22 08:46:12;;;;;;;;;;;;;;;13.90;56.42;97434.25;110394;1241;71883;-61
2024/02/22 08:48:41;;;;;;;;;;;;;;;14.45;57.00;97431.82;110366;1238;69935;-62
2024/02/22 08:51:13;;;;;;;;;;;;;;;14.73;54.15;97423.38;110236;1242;68820;-62
2024/02/22 08:53:43;;;;;;;;;;;;;;;15.30;56.53;97416.39;110422;1238;60510;-62
2024/02/22 08:56:12;;;;;;;;;;;;;;;15.57;53.42;97413.80;110529;1241;60502;-62
2024/02/22 08:58:42;;;;;;;;;;;;;;;15.62;53.15;97406.86;110540;1240;72281;-63
2024/02/22 09:01:11;;;;;;;;;;;;;;;16.01;51.49;97407.17;110533;1242;69660;-63
2024/02/22 09:03:40;;;;;;;;;;;;;;;15.97;48.87;97406.16;110439;1238;70131;-63
2024/02/22 09:06:08;;;;;;;;;;;;;;;15.65;48.05;97402.11;110408;1241;60540;-63
2024/02/22 09:08:41;;;;;;;;;;;;;;;15.19;49.89;97406.35;110526;1241;60471;-62
2024/02/22 09:11:12;;;;;;;;;;;;;;;15.16;50.78;97399.98;110507;1238;72831;-62
2024/02/22 09:13:41;;;;;;;;;;;;;;;15.45;49.95;97401.73;110461;1241;68780;-62
2024/02/22 09:16:09;;;;;;;;;;;;;;;15.23;49.44;97398.64;110397;1240;69120;-62
2024/02/22 09:18:39;;;;;;;;;;;;;;;15.14;48.66;97395.10;110434;1240;60562;-62
2024/02/22 09:21:07;;;;;;;;;;;;;;;15.07;50.27;97395.42;110363;1240;60481;-62
2024/02/22 09:23:38;;;;;;;;;;;;;;;15.24;50.58;97391.15;110393;1238;71995;-62
2024/02/22 09:26:07;;;;;;;;;;;;;;;15.38;49.61;97389.02;110410;1240;69143;-62
2024/02/22 09:28:36;;;;;;;;;;;;;;;15.44;47.95;97386.89;110342;1241;69255;-62
2024/02/22 09:31:05;;;;;;;;;;;;;;;15.48;46.92;97383.65;110358;1238;60541;-61
2024/02/22 09:33:33;;;;;;;;;;;;;;;15.50;47.53;97373.84;110376;1241;60441;-61
2024/02/22 09:36:03;;;;;;;;;;;;;;;15.62;47.70;97375.92;110399;1240;72305;-61
2024/02/22 09:38:34;;;;;;;;;;;;;;;15.62;46.85;97370.80;110374;1238;69884;-61
2024/02/22 09:41:03;;;;;;;;;;;;;;;15.55;47.60;97358.06;110387;1240;69679;-61
2024/02/22 09:43:32;;;;;;;;;;;;;;;15.40;46.65;97356.66;110414;1240;60513;-61
2024/02/22 09:46:01;;;;;;;;;;;;;;;15.38;46.35;97348.13;110386;1240;60547;-61
2024/02/22 09:48:30;;;;;;;;;;;;;;;15.38;45.82;97350.04;110413;1241;72178;-62
2024/02/22 09:50:59;;;;;;;;;;;;;;;15.40;46.11;97343.30;110390;1240;69257;-61
2024/02/22 09:53:28;;;;;;;;;;;;;;;15.23;46.54;97341.56;110397;1238;69817;-61
2024/02/22 09:55:58;;;;;;;;;;;;;;;15.38;46.76;97339.70;110366;1238;60474;-61
2024/02/22 09:58:28;;;;;;;;;;;;;;;15.44;45.91;97334.73;110421;1240;60556;-62
2024/02/22 10:00:57;;;;;;;;;;;;;;;15.56;46.11;97332.58;110444;1241;72031;-62
2024/02/22 10:03:31;;;;;;;;;;;;;;;15.37;45.68;97324.10;110429;1241;69648;-62
2024/02/22 10:06:00;;;;;;;;;;;;;;;15.51;45.48;97319.64;110354;1241;69284;-62
2024/02/22 10:08:29;;;;;;;;;;;;;;;15.00;45.86;97316.50;110399;1241;60573;-61
2024/02/22 10:11:05;;;;;;;;;;;;;;;14.92;46.13;97312.47;110464;1241;60405;-61
2024/02/22 10:13:34;;;;;;;;;;;;;;;14.95;46.36;97310.70;110498;1240;72640;-62
2024/02/22 10:16:15;;;;;;;;;;;;;;;15.18;46.80;97304.13;110526;1238;68128;-62
2024/02/22 10:18:43;;;;;;;;;;;;;;;15.66;45.44;97301.17;110525;1238;68521;-61
2024/02/22 10:21:17;;;;;;;;;;;;;;;15.95;44.66;97290.95;110413;1241;60547;-61
2024/02/22 10:23:46;;;;;;;;;;;;;;;16.29;43.61;97299.39;110406;1241;60475;-62
2024/02/22 10:26:17;;;;;;;;;;;;;;;16.32;43.77;97295.73;110370;1238;72138;-62
2024/02/22 10:29:15;;;;;;;;;;;;;;;16.39;44.42;97286.97;110488;1242;69831;-62
2024/02/22 10:31:48;;;;;;;;;;;;;;;16.47;43.67;97282.11;110289;1238;69835;-62
2024/02/22 10:34:18;;;;;;;;;;;;;;;16.91;44.58;97280.33;110365;1241;60588;-61
2024/02/22 10:36:48;;;;;;;;;;;;;;;17.54;43.22;97271.86;110353;1241;60892;-61
2024/02/22 10:39:17;;;;;;;;;;;;;;;17.26;41.14;97266.99;110386;1243;72863;-62
2024/02/22 10:41:47;;;;;;;;;;;;;;;16.54;41.71;97256.77;110497;1242;69702;-62
2024/02/22 10:44:16;;;;;;;;;;;;;;;16.98;41.60;97257.15;110425;1241;69791;-61
2024/02/22 10:46:45;;;;;;;;;;;;;;;17.54;41.30;97253.51;110413;1238;60560;-62
2024/02/22 10:49:14;;;;;;;;;;;;;;;17.89;41.06;97242.32;110405;1242;60473;-62
2024/02/22 10:51:45;;;;;;;;;;;;;;;18.26;39.70;97239.44;110366;1238;72802;-62
2024/02/22 10:54:14;;;;;;;;;;;;;;;17.76;38.73;97234.64;110376;1241;69391;-62
2024/02/22 10:56:45;;;;;;;;;;;;;;;16.63;39.95;97233.77;110397;1241;69273;-62
2024/02/22 10:59:15;;;;;;;;;;;;;;;17.10;39.30;97236.20;110354;1241;60472;-61
2024/02/22 11:01:45;;;;;;;;;;;;;;;16.22;40.28;97226.20;110359;1242;60949;-61
2024/02/22 11:04:15;;;;;;;;;;;;;;;15.88;41.53;97219.80;110443;1240;72247;-61
2024/02/22 11:06:44;;;;;;;;;;;;;;;16.31;40.55;97213.19;110389;1242;69843;-62
2024/02/22 11:09:17;;;;;;;;;;;;;;;16.60;37.91;97216.09;110396;1241;69056;-61
2024/02/22 11:11:49;;;;;;;;;;;;;;;16.87;37.10;97208.59;110451;1245;60567;-61
2024/02/22 11:14:28;;;;;;;;;;;;;;;16.35;38.37;97201.69;110403;1242;60473;-62
2024/02/22 11:17:03;;;;;;;;;;;;;;;16.18;38.83;97197.80;110335;1242;71619;-62
2024/02/22 11:19:31;;;;;;;;;;;;;;;16.89;38.62;97196.27;110394;1241;69432;-62
2024/02/22 11:22:00;;;;;;;;;;;;;;;17.77;36.58;97188.02;110487;1241;69919;-62
2024/02/22 11:24:29;;;;;;;;;;;;;;;17.80;36.04;97184.36;110420;1240;60506;-61
2024/02/22 11:26:58;;;;;;;;;;;;;;;18.11;35.29;97189.35;110413;1238;60456;-62
2024/02/22 11:29:31;;;;;;;;;;;;;;;18.34;35.04;97190.63;110401;1241;72011;-62
2024/02/22 11:32:00;;;;;;;;;;;;;;;18.50;34.55;97188.89;110330;1242;69821;-62
2024/02/22 11:34:30;;;;;;;;;;;;;;;18.64;33.85;97182.40;110413;1241;68838;-61
2024/02/22 11:37:11;;;;;;;;;;;;;;;18.57;34.09;97175.96;110419;1240;60473;-62
2024/02/22 11:39:39;;;;;;;;;;;;;;;18.90;34.48;97168.93;110382;1241;60470;-62
2024/02/22 11:42:18;;;;;;;;;;;;;;;19.03;33.66;97164.37;110370;1238;72594;-62
2024/02/22 11:44:47;;;;;;;;;;;;;;;19.02;33.99;97155.91;110466;1239;68823;-62
2024/02/22 11:47:15;;;;;;;;;;;;;;;19.62;33.08;97148.42;110491;1238;69187;-62
2024/02/22 11:49:44;;;;;;;;;;;;;;;19.16;33.27;97147.00;110482;1243;60553;-61
2024/02/22 11:52:13;;;;;;;;;;;;;;;18.78;33.29;97136.55;110369;1242;60468;-61
2024/02/22 11:54:49;;;;;;;;;;;;;;;18.39;34.15;97130.54;110351;1241;71950;-61
2024/02/22 11:57:17;;;;;;;;;;;;;;;17.21;34.87;97120.80;110372;1243;69749;-63
2024/02/22 11:59:46;;;;;;;;;;;;;;;16.94;34.83;97117.91;110423;1242;69880;-62
2024/02/22 12:02:18;;;;;;;;;;;;;;;16.66;35.37;97114.02;110424;1238;60546;-62
2024/02/22 12:04:47;;;;;;;;;;;;;;;17.04;35.07;97108.65;110398;1238;60526;-62
2024/02/22 12:07:16;;;;;;;;;;;;;;;17.23;34.87;97101.54;110432;1240;71592;-62
2024/02/22 12:09:46;;;;;;;;;;;;;;;17.59;34.57;97103.08;110360;1241;69211;-62
2024/02/22 12:12:15;;;;;;;;;;;;;;;17.67;35.07;97098.33;110360;1242;69483;-62
2024/02/22 12:14:54;;;;;;;;;;;;;;;18.82;34.00;97097.63;110384;1238;60471;-62
2024/02/22 12:17:26;;;;;;;;;;;;;;;19.27;33.04;97089.13;110383;1241;60482;-62
2024/02/22 12:19:55;;;;;;;;;;;;;;;19.34;33.10;97092.89;110372;1238;72001;-62
2024/02/22 12:22:27;;;;;;;;;;;;;;;19.64;32.29;97087.10;110407;1242;69119;-62
2024/02/22 12:24:56;;;;;;;;;;;;;;;19.21;32.42;97081.59;110399;1242;69746;-62
2024/02/22 12:27:26;;;;;;;;;;;;;;;19.29;33.46;97068.70;110389;1240;60540;-62
2024/02/22 12:29:57;;;;;;;;;;;;;;;20.03;32.82;97066.13;110447;1238;60931;-62
2024/02/22 12:32:26;;;;;;;;;;;;;;;20.48;31.07;97058.07;110399;1240;72595;-62
2024/02/22 12:34:57;;;;;;;;;;;;;;;20.16;29.90;97050.48;110381;1242;69147;-62
2024/02/22 12:37:27;;;;;;;;;;;;;;;18.71;31.28;97050.55;110398;1241;69851;-62
2024/02/22 12:39:55;;;;;;;;;;;;;;;18.08;32.01;97041.55;110347;1242;60545;-62
2024/02/22 12:42:24;;;;;;;;;;;;;;;17.20;33.25;97034.75;110406;1238;60477;-62
2024/02/22 12:44:52;;;;;;;;;;;;;;;18.01;33.12;97037.23;110437;1241;72169;-61
2024/02/22 12:47:21;;;;;;;;;;;;;;;18.82;31.83;97030.96;110481;1241;69262;-62